Time;durP1;ratioP1;P1;durP2;ratioP2;P2;SDS_P1;SDS_P2;PMS_P1;PMS_P2;Temp;Humidity;BMP_temperature;BMP_pressure;BME280_temperature;BME280_humidity;BME280_pressure;Samples;Min_cycle;Max_cycle;Signal;HPM_P1;HPM_P2
2021/06/26 00:01:35;;;;;;;26.27;23.33;;;;;;;;;;5095015;28;20028;-77
2021/06/26 00:04:01;;;;;;;23.55;21.10;;;;;;;;;;5094976;28;20043;-77
2021/06/26 00:06:27;;;;;;;23.10;20.98;;;;;;;;;;5095052;28;20100;-77
2021/06/26 00:08:53;;;;;;;28.80;25.55;;;;;;;;;;5094916;28;20024;-77
2021/06/26 00:11:20;;;;;;;25.85;23.25;;;;;;;;;;5094368;28;20028;-77
2021/06/26 00:13:46;;;;;;;22.35;20.15;;;;;;;;;;5095189;28;20039;-77
2021/06/26 00:16:12;;;;;;;24.33;21.90;;;;;;;;;;5094517;28;20049;-77
2021/06/26 00:18:38;;;;;;;23.63;21.10;;;;;;;;;;5094709;28;20024;-77
2021/06/26 00:21:05;;;;;;;23.60;20.88;;;;;;;;;;5094489;28;20109;-77
2021/06/26 00:23:31;;;;;;;26.38;23.73;;;;;;;;;;5094447;28;20020;-77
2021/06/26 00:25:57;;;;;;;23.10;20.52;;;;;;;;;;5093835;28;20064;-77
2021/06/26 00:28:23;;;;;;;22.20;20.05;;;;;;;;;;5094238;28;20548;-77
2021/06/26 00:30:49;;;;;;;22.33;20.25;;;;;;;;;;5094553;28;20465;-77
2021/06/26 00:33:15;;;;;;;25.38;22.42;;;;;;;;;;5094104;28;20063;-77
2021/06/26 00:35:41;;;;;;;25.75;19.30;;;;;;;;;;5094542;28;20059;-77
2021/06/26 00:38:07;;;;;;;23.67;21.45;;;;;;;;;;5094204;28;20380;-77
2021/06/26 00:40:33;;;;;;;23.02;20.80;;;;;;;;;;5094141;28;20024;-77
2021/06/26 00:42:59;;;;;;;26.35;23.65;;;;;;;;;;5093952;28;20028;-77
2021/06/26 00:45:25;;;;;;;23.13;20.98;;;;;;;;;;5094705;28;20036;-77
2021/06/26 00:47:51;;;;;;;24.63;22.35;;;;;;;;;;5094266;28;20028;-77
2021/06/26 00:50:19;;;;;;;26.67;22.10;;;;;;;;;;5094155;28;20082;-77
2021/06/26 00:52:45;;;;;;;44.17;20.45;;;;;;;;;;5093656;28;20500;-77
2021/06/26 00:55:11;;;;;;;22.38;20.27;;;;;;;;;;5093497;28;20107;-77
2021/06/26 00:57:38;;;;;;;23.88;21.60;;;;;;;;;;5094051;28;20027;-77
2021/06/26 01:00:04;;;;;;;22.17;20.15;;;;;;;;;;5093952;28;20416;-77
2021/06/26 01:02:30;;;;;;;26.20;23.63;;;;;;;;;;5094271;28;20036;-77
2021/06/26 01:04:56;;;;;;;25.15;22.63;;;;;;;;;;5093682;28;20028;-77
2021/06/26 01:07:22;;;;;;;25.63;23.08;;;;;;;;;;5093862;28;20527;-77
2021/06/26 01:09:49;;;;;;;22.75;20.40;;;;;;;;;;5093528;28;20380;-76
2021/06/26 01:12:15;;;;;;;27.13;24.48;;;;;;;;;;5093775;28;20064;-77
2021/06/26 01:14:41;;;;;;;22.98;20.70;;;;;;;;;;5093871;28;20045;-77
2021/06/26 01:17:07;;;;;;;24.83;20.98;;;;;;;;;;5093355;28;20453;-77
2021/06/26 01:19:33;;;;;;;31.52;24.30;;;;;;;;;;5094059;28;20047;-77
2021/06/26 01:21:59;;;;;;;22.42;20.10;;;;;;;;;;5094501;28;20024;-77
2021/06/26 01:24:26;;;;;;;24.15;21.25;;;;;;;;;;5093909;28;20033;-77
2021/06/26 01:26:57;;;;;;;30.80;19.63;;;;;;;;;;5094224;28;20020;-77
2021/06/26 01:29:23;;;;;;;24.43;20.93;;;;;;;;;;5094811;28;20081;-77
2021/06/26 01:31:49;;;;;;;27.13;22.27;;;;;;;;;;5094275;28;20052;-77
2021/06/26 01:34:15;;;;;;;24.70;21.33;;;;;;;;;;5094507;28;20040;-77
2021/06/26 01:36:41;;;;;;;22.83;20.65;;;;;;;;;;5094390;28;20086;-77
2021/06/26 01:39:07;;;;;;;28.58;21.15;;;;;;;;;;5096966;28;20370;-76
2021/06/26 01:41:33;;;;;;;22.58;20.30;;;;;;;;;;5097980;28;20169;-77
2021/06/26 01:43:59;;;;;;;22.40;20.20;;;;;;;;;;5098336;28;20028;-77
2021/06/26 01:46:25;;;;;;;27.02;20.85;;;;;;;;;;5098470;28;20028;-77
2021/06/26 01:48:51;;;;;;;22.42;20.13;;;;;;;;;;5097872;28;20056;-77
2021/06/26 01:51:18;;;;;;;23.10;20.95;;;;;;;;;;5097655;28;20059;-77
2021/06/26 01:53:44;;;;;;;25.52;23.05;;;;;;;;;;5097609;28;20115;-77
2021/06/26 01:56:12;;;;;;;29.25;22.27;;;;;;;;;;5097548;28;20028;-77
2021/06/26 01:58:38;;;;;;;24.75;22.27;;;;;;;;;;5097701;28;20466;-77
2021/06/26 02:01:04;;;;;;;24.90;21.90;;;;;;;;;;5097399;28;20027;-77
2021/06/26 02:03:30;;;;;;;23.05;20.63;;;;;;;;;;5098003;28;20056;-77
2021/06/26 02:05:56;;;;;;;24.85;22.50;;;;;;;;;;5097913;28;20466;-77
2021/06/26 02:08:22;;;;;;;21.73;19.42;;;;;;;;;;5097606;28;20111;-77
2021/06/26 02:10:48;;;;;;;24.45;21.88;;;;;;;;;;5097950;28;20031;-77
2021/06/26 02:13:14;;;;;;;24.08;20.92;;;;;;;;;;5097476;28;20388;-77
2021/06/26 02:15:40;;;;;;;25.08;22.58;;;;;;;;;;5097777;28;20024;-77
2021/06/26 02:18:06;;;;;;;24.85;22.33;;;;;;;;;;5098179;28;20032;-77
2021/06/26 02:20:32;;;;;;;24.50;22.10;;;;;;;;;;5097423;28;20035;-77
2021/06/26 02:22:58;;;;;;;23.67;21.50;;;;;;;;;;5096962;28;20031;-77
2021/06/26 02:25:25;;;;;;;25.02;22.33;;;;;;;;;;5097360;28;20035;-77
2021/06/26 02:27:51;;;;;;;24.23;21.88;;;;;;;;;;5097535;28;20144;-77
2021/06/26 02:30:17;;;;;;;25.10;22.45;;;;;;;;;;5097098;28;20504;-77
2021/06/26 02:32:43;;;;;;;22.73;20.52;;;;;;;;;;5097443;28;20036;-77
2021/06/26 02:35:10;;;;;;;27.95;22.63;;;;;;;;;;5097228;28;20025;-77
2021/06/26 02:37:38;;;;;;;28.42;24.23;;;;;;;;;;5097136;28;20028;-77
2021/06/26 02:40:04;;;;;;;25.25;21.30;;;;;;;;;;5097356;28;20393;-77
2021/06/26 02:42:30;;;;;;;22.30;19.98;;;;;;;;;;5097291;28;20369;-77
2021/06/26 02:44:56;;;;;;;25.27;22.80;;;;;;;;;;5096883;28;20055;-77
2021/06/26 02:47:23;;;;;;;24.38;22.27;;;;;;;;;;5097487;28;20039;-77
2021/06/26 02:49:49;;;;;;;27.35;23.23;;;;;;;;;;5096706;28;20047;-77
2021/06/26 02:52:16;;;;;;;24.83;22.52;;;;;;;;;;5096888;28;20032;-77
2021/06/26 02:54:43;;;;;;;24.98;20.20;;;;;;;;;;5096391;28;20026;-77
2021/06/26 02:57:09;;;;;;;25.05;22.42;;;;;;;;;;5096655;28;20028;-77
2021/06/26 02:59:35;;;;;;;21.30;19.30;;;;;;;;;;5096713;28;20028;-77
2021/06/26 03:02:01;;;;;;;25.15;22.63;;;;;;;;;;5096824;28;20035;-77
2021/06/26 03:04:27;;;;;;;23.52;21.42;;;;;;;;;;5096791;28;20024;-78
2021/06/26 03:06:53;;;;;;;23.92;19.00;;;;;;;;;;5096563;28;20034;-77
2021/06/26 03:09:19;;;;;;;23.90;21.65;;;;;;;;;;5096334;28;20035;-78
2021/06/26 03:11:45;;;;;;;22.25;20.10;;;;;;;;;;5096750;28;20100;-78
2021/06/26 03:14:11;;;;;;;25.05;22.50;;;;;;;;;;5096833;28;20040;-78
2021/06/26 03:16:37;;;;;;;24.75;22.30;;;;;;;;;;5096494;28;20385;-78
2021/06/26 03:19:04;;;;;;;30.48;24.90;;;;;;;;;;5096305;28;20043;-77
2021/06/26 03:21:30;;;;;;;27.83;25.33;;;;;;;;;;5096061;28;20058;-78
2021/06/26 03:23:56;;;;;;;25.98;23.48;;;;;;;;;;5096252;28;20020;-77
2021/06/26 03:26:22;;;;;;;24.77;22.45;;;;;;;;;;5096673;28;20154;-77
2021/06/26 03:28:49;;;;;;;26.98;23.73;;;;;;;;;;5096110;28;20024;-78
2021/06/26 03:31:16;;;;;;;26.05;22.00;;;;;;;;;;5095910;28;20066;-76
2021/06/26 03:33:42;;;;;;;32.15;26.25;;;;;;;;;;5096216;28;20036;-77
2021/06/26 03:36:08;;;;;;;29.83;25.13;;;;;;;;;;5095146;28;20054;-77
2021/06/26 03:38:35;;;;;;;26.17;23.17;;;;;;;;;;5095725;28;20032;-78
2021/06/26 03:41:01;;;;;;;28.63;25.38;;;;;;;;;;5096095;28;20024;-76
2021/06/26 03:43:27;;;;;;;24.20;21.70;;;;;;;;;;5096420;28;20038;-77
2021/06/26 03:45:54;;;;;;;22.20;20.08;;;;;;;;;;5096015;28;20031;-77
2021/06/26 03:48:20;;;;;;;27.52;24.60;;;;;;;;;;5095927;28;20024;-78
2021/06/26 03:50:46;;;;;;;25.08;22.50;;;;;;;;;;5096329;28;20063;-77
2021/06/26 03:53:12;;;;;;;26.13;23.42;;;;;;;;;;5095666;28;20130;-78
2021/06/26 03:55:38;;;;;;;23.88;21.55;;;;;;;;;;5096452;28;20024;-78
2021/06/26 03:58:04;;;;;;;28.02;25.17;;;;;;;;;;5096344;28;20103;-78
2021/06/26 04:00:30;;;;;;;31.40;25.05;;;;;;;;;;5095219;28;20035;-78
2021/06/26 04:02:56;;;;;;;22.25;19.92;;;;;;;;;;5095239;28;20491;-77
2021/06/26 04:05:22;;;;;;;30.30;26.35;;;;;;;;;;5095414;28;20465;-78
2021/06/26 04:07:48;;;;;;;25.13;22.58;;;;;;;;;;5095775;28;20382;-78
2021/06/26 04:10:14;;;;;;;24.33;21.90;;;;;;;;;;5095861;28;20065;-77
2021/06/26 04:12:40;;;;;;;24.80;22.25;;;;;;;;;;5095522;28;20064;-77
2021/06/26 04:15:07;;;;;;;28.40;25.58;;;;;;;;;;5095353;28;20028;-78
2021/06/26 04:17:33;;;;;;;28.48;25.30;;;;;;;;;;5095383;28;20028;-77
2021/06/26 04:19:59;;;;;;;28.88;25.75;;;;;;;;;;5095455;28;20031;-77
2021/06/26 04:22:26;;;;;;;31.88;28.77;;;;;;;;;;5095392;28;20127;-78
2021/06/26 04:24:52;;;;;;;30.65;27.83;;;;;;;;;;5093221;28;20875;-79
2021/06/26 04:27:18;;;;;;;33.67;30.45;;;;;;;;;;5094956;28;20020;-76
2021/06/26 04:29:44;;;;;;;30.25;27.38;;;;;;;;;;5114207;28;20033;-75
2021/06/26 04:32:11;;;;;;;27.90;25.30;;;;;;;;;;5098302;28;20020;-77
2021/06/26 04:34:37;;;;;;;36.03;24.30;;;;;;;;;;5094794;28;20398;-78
2021/06/26 04:37:03;;;;;;;29.38;26.58;;;;;;;;;;5113321;28;20027;-76
2021/06/26 04:39:29;;;;;;;30.58;27.45;;;;;;;;;;5116021;28;20020;-77
2021/06/26 04:41:55;;;;;;;25.73;23.23;;;;;;;;;;5115649;28;20028;-76
2021/06/26 04:44:21;;;;;;;31.88;28.58;;;;;;;;;;5115306;28;20023;-76
2021/06/26 04:46:47;;;;;;;33.92;29.10;;;;;;;;;;5113525;28;20031;-76
2021/06/26 04:49:13;;;;;;;32.00;29.05;;;;;;;;;;5114367;28;20069;-75
2021/06/26 04:51:39;;;;;;;29.25;26.23;;;;;;;;;;5114420;28;20393;-75
2021/06/26 04:54:05;;;;;;;31.83;28.77;;;;;;;;;;5114905;28;20122;-76
2021/06/26 04:56:32;;;;;;;27.85;24.92;;;;;;;;;;5114176;28;20033;-77
2021/06/26 04:58:59;;;;;;;30.25;27.38;;;;;;;;;;5114243;28;20048;-74
2021/06/26 05:01:25;;;;;;;33.05;29.85;;;;;;;;;;5114636;28;20027;-75
2021/06/26 05:03:51;;;;;;;35.15;31.65;;;;;;;;;;5115049;28;20069;-76
2021/06/26 05:06:17;;;;;;;31.48;28.25;;;;;;;;;;5114278;28;20415;-76
2021/06/26 05:08:43;;;;;;;33.28;29.92;;;;;;;;;;5114784;28;20126;-75
2021/06/26 05:11:09;;;;;;;36.45;32.42;;;;;;;;;;5114112;28;20024;-75
2021/06/26 05:13:35;;;;;;;34.88;31.50;;;;;;;;;;5113858;28;20071;-74
2021/06/26 05:16:01;;;;;;;31.20;28.13;;;;;;;;;;5114584;28;20374;-77
2021/06/26 05:18:28;;;;;;;33.40;29.90;;;;;;;;;;5114143;28;20453;-78
2021/06/26 05:20:55;;;;;;;39.00;34.92;;;;;;;;;;5113772;28;20361;-76
2021/06/26 05:23:21;;;;;;;38.67;31.67;;;;;;;;;;5113326;28;20027;-76
2021/06/26 05:25:47;;;;;;;33.25;29.88;;;;;;;;;;5113398;28;20020;-76
2021/06/26 05:28:13;;;;;;;34.60;29.92;;;;;;;;;;5113348;28;20115;-75
2021/06/26 05:30:39;;;;;;;34.75;31.25;;;;;;;;;;5113865;28;20020;-74
2021/06/26 05:33:05;;;;;;;32.95;29.35;;;;;;;;;;5113081;28;20523;-74
2021/06/26 05:35:31;;;;;;;32.38;29.08;;;;;;;;;;5113453;28;20085;-76
2021/06/26 05:37:57;;;;;;;36.38;32.72;;;;;;;;;;5114082;28;20030;-76
2021/06/26 05:40:23;;;;;;;31.15;28.08;;;;;;;;;;5113216;28;20445;-76
2021/06/26 05:42:49;;;;;;;31.35;28.17;;;;;;;;;;5113776;28;20403;-76
2021/06/26 05:45:16;;;;;;;31.45;28.27;;;;;;;;;;5113078;28;20031;-76
2021/06/26 05:47:42;;;;;;;32.72;29.00;;;;;;;;;;5113772;28;20039;-75
2021/06/26 05:50:08;;;;;;;32.35;28.70;;;;;;;;;;5113075;28;20476;-76
2021/06/26 05:52:44;;;;;;;29.77;26.67;;;;;;;;;;5113365;28;20038;-75
2021/06/26 05:55:10;;;;;;;30.75;27.23;;;;;;;;;;5113266;28;20157;-74
2021/06/26 05:57:36;;;;;;;29.10;26.17;;;;;;;;;;5114308;28;20019;-73
2021/06/26 06:00:03;;;;;;;30.10;27.08;;;;;;;;;;5113050;28;20508;-72
2021/06/26 06:02:29;;;;;;;29.58;26.55;;;;;;;;;;5112958;28;20028;-78
2021/06/26 06:04:55;;;;;;;30.25;26.95;;;;;;;;;;5113092;28;20034;-75
2021/06/26 06:07:21;;;;;;;38.05;29.05;;;;;;;;;;5114061;28;20020;-75
2021/06/26 06:09:47;;;;;;;31.08;27.90;;;;;;;;;;5113714;28;20028;-72
2021/06/26 06:12:13;;;;;;;32.25;28.92;;;;;;;;;;5113153;28;20028;-72
2021/06/26 06:14:39;;;;;;;31.05;27.80;;;;;;;;;;5113616;28;20020;-75
2021/06/26 06:17:06;;;;;;;27.95;25.15;;;;;;;;;;5113784;28;20065;-73
2021/06/26 06:19:32;;;;;;;28.58;25.50;;;;;;;;;;5113093;28;20498;-74
2021/06/26 06:21:58;;;;;;;32.58;29.17;;;;;;;;;;5114338;28;20376;-73
2021/06/26 06:24:24;;;;;;;27.40;24.70;;;;;;;;;;5115990;28;20016;-76
2021/06/26 06:26:50;;;;;;;27.05;23.88;;;;;;;;;;5117543;28;20376;-75
2021/06/26 06:29:16;;;;;;;27.75;25.23;;;;;;;;;;5117315;28;20028;-76
2021/06/26 06:31:42;;;;;;;26.52;23.92;;;;;;;;;;5117475;28;20031;-78
2021/06/26 06:34:09;;;;;;;26.75;24.25;;;;;;;;;;5117365;28;20036;-80
2021/06/26 06:36:36;;;;;;;27.65;25.00;;;;;;;;;;5117692;28;20055;-75
2021/06/26 06:39:02;;;;;;;25.42;22.83;;;;;;;;;;5117011;28;20031;-79
2021/06/26 06:41:28;;;;;;;23.65;21.35;;;;;;;;;;5117013;28;20024;-76
2021/06/26 06:43:54;;;;;;;24.38;21.98;;;;;;;;;;5117644;28;20027;-76
2021/06/26 06:46:20;;;;;;;24.05;21.65;;;;;;;;;;5117099;28;20023;-76
2021/06/26 06:48:46;;;;;;;24.13;21.73;;;;;;;;;;5116416;28;20441;-75
2021/06/26 06:51:12;;;;;;;23.30;21.05;;;;;;;;;;5117500;28;20051;-76
2021/06/26 06:53:38;;;;;;;23.42;20.92;;;;;;;;;;5116429;28;20086;-74
2021/06/26 06:56:04;;;;;;;22.92;19.90;;;;;;;;;;5117039;28;20030;-75
2021/06/26 06:58:31;;;;;;;24.33;20.08;;;;;;;;;;5116170;28;20427;-76
2021/06/26 07:00:57;;;;;;;21.13;18.88;;;;;;;;;;5116329;28;20031;-75
2021/06/26 07:03:23;;;;;;;23.55;21.17;;;;;;;;;;5116109;28;20054;-76
2021/06/26 07:05:49;;;;;;;21.73;19.33;;;;;;;;;;5116753;28;20024;-76
2021/06/26 07:08:15;;;;;;;21.40;19.20;;;;;;;;;;5116688;28;20028;-75
2021/06/26 07:10:41;;;;;;;20.05;17.77;;;;;;;;;;5116673;28;20031;-75
2021/06/26 07:13:07;;;;;;;21.33;19.25;;;;;;;;;;5116320;28;20031;-77
2021/06/26 07:15:33;;;;;;;20.35;18.20;;;;;;;;;;5116480;28;20024;-76
2021/06/26 07:17:59;;;;;;;18.25;16.25;;;;;;;;;;5115323;28;20469;-75
2021/06/26 07:20:25;;;;;;;18.30;16.60;;;;;;;;;;5116591;28;20036;-77
2021/06/26 07:22:51;;;;;;;17.95;16.05;;;;;;;;;;5116047;28;20922;-76
2021/06/26 07:25:17;;;;;;;17.67;15.48;;;;;;;;;;5116152;28;20028;-77
2021/06/26 07:27:43;;;;;;;17.90;15.30;;;;;;;;;;5116715;28;20036;-76
2021/06/26 07:30:10;;;;;;;18.65;16.80;;;;;;;;;;5116126;28;20076;-74
2021/06/26 07:32:36;;;;;;;17.88;15.95;;;;;;;;;;5115409;28;20442;-75
2021/06/26 07:35:02;;;;;;;19.05;15.85;;;;;;;;;;5114831;28;20069;-76
2021/06/26 07:37:28;;;;;;;18.88;16.30;;;;;;;;;;5115780;28;20046;-76
2021/06/26 07:39:54;;;;;;;22.13;14.30;;;;;;;;;;5116061;28;20506;-75
2021/06/26 07:42:20;;;;;;;22.30;14.15;;;;;;;;;;5116032;28;20446;-75
2021/06/26 07:44:46;;;;;;;18.92;15.68;;;;;;;;;;5115050;28;20122;-77
2021/06/26 07:47:12;;;;;;;40.88;17.13;;;;;;;;;;5115744;28;20034;-75
2021/06/26 07:49:38;;;;;;;18.33;16.52;;;;;;;;;;5115428;28;20054;-75
2021/06/26 07:52:05;;;;;;;21.85;15.95;;;;;;;;;;5115803;28;20019;-71
2021/06/26 07:54:31;;;;;;;16.63;15.00;;;;;;;;;;5114284;28;20454;-73
2021/06/26 07:56:57;;;;;;;17.13;15.45;;;;;;;;;;5104184;28;20020;-73
2021/06/26 07:59:23;;;;;;;16.35;14.82;;;;;;;;;;5102875;28;20072;-72
2021/06/26 08:01:49;;;;;;;14.07;12.73;;;;;;;;;;5103989;28;20496;-72
2021/06/26 08:04:15;;;;;;;16.75;15.15;;;;;;;;;;5109656;28;20031;-73
2021/06/26 08:06:41;;;;;;;22.83;16.25;;;;;;;;;;5115658;28;20023;-71
2021/06/26 08:09:07;;;;;;;16.55;14.75;;;;;;;;;;5115085;28;20069;-72
2021/06/26 08:11:34;;;;;;;18.38;14.70;;;;;;;;;;5114842;28;20026;-73
2021/06/26 08:14:00;;;;;;;20.23;16.02;;;;;;;;;;5115348;28;20488;-76
2021/06/26 08:16:26;;;;;;;35.55;13.95;;;;;;;;;;5115489;28;20031;-76
2021/06/26 08:18:52;;;;;;;24.92;15.18;;;;;;;;;;5115941;28;20465;-75
2021/06/26 08:21:30;;;;;;;;;;;;;;;;;;;;;
2021/06/26 08:24:02;;;;;;;16.65;15.07;;;;;;;;;;5115144;28;20028;-73
2021/06/26 08:26:29;;;;;;;15.93;14.43;;;;;;;;;;5115289;28;20024;-75
2021/06/26 08:28:55;;;;;;;18.85;16.67;;;;;;;;;;5114840;28;20372;-74
2021/06/26 08:31:21;;;;;;;18.30;14.93;;;;;;;;;;5115512;28;20024;-74
2021/06/26 08:33:47;;;;;;;17.20;15.70;;;;;;;;;;5114756;28;20058;-74
2021/06/26 08:36:13;;;;;;;17.40;15.07;;;;;;;;;;5114651;28;20103;-76
2021/06/26 08:38:39;;;;;;;16.85;15.20;;;;;;;;;;5115081;28;20020;-75
2021/06/26 08:41:05;;;;;;;34.38;16.73;;;;;;;;;;5114590;28;20031;-74
2021/06/26 08:43:33;;;;;;;24.83;16.13;;;;;;;;;;5114566;28;20438;-72
2021/06/26 08:46:00;;;;;;;20.10;15.13;;;;;;;;;;5114978;28;20020;-78
2021/06/26 08:48:26;;;;;;;22.67;16.60;;;;;;;;;;5114475;28;20035;-74
2021/06/26 08:50:52;;;;;;;26.63;13.85;;;;;;;;;;5114415;28;20051;-75
2021/06/26 08:53:18;;;;;;;16.98;14.27;;;;;;;;;;5113884;28;20039;-70
2021/06/26 08:55:44;;;;;;;16.60;15.20;;;;;;;;;;5114245;28;20573;-74
2021/06/26 08:58:10;;;;;;;17.33;15.52;;;;;;;;;;5114004;28;20020;-74
2021/06/26 09:00:36;;;;;;;20.95;16.27;;;;;;;;;;5113927;28;20474;-71
2021/06/26 09:03:08;;;;;;;28.33;20.05;;;;;;;;;;5113911;28;20032;-73
2021/06/26 09:05:34;;;;;;;18.48;16.63;;;;;;;;;;5113470;28;20072;-73
2021/06/26 09:08:08;;;;;;;18.25;15.52;;;;;;;;;;5114104;28;20172;-72
2021/06/26 09:10:34;;;;;;;36.20;15.35;;;;;;;;;;5113709;28;20114;-71
2021/06/26 09:13:09;;;;;;;17.55;15.07;;;;;;;;;;5112599;28;20028;-70
2021/06/26 09:15:35;;;;;;;21.95;14.93;;;;;;;;;;5114331;28;20024;-71
2021/06/26 09:18:09;;;;;;;17.63;15.95;;;;;;;;;;5108667;28;20020;-72
2021/06/26 09:20:37;;;;;;;20.63;18.60;;;;;;;;;;5097520;28;20059;-72
2021/06/26 09:23:05;;;;;;;21.52;15.15;;;;;;;;;;5092921;28;20082;-71
2021/06/26 09:25:34;;;;;;;17.05;15.52;;;;;;;;;;5093298;28;20039;-72
2021/06/26 09:28:00;;;;;;;18.58;12.85;;;;;;;;;;5093615;28;20024;-72
2021/06/26 09:30:34;;;;;;;18.20;16.48;;;;;;;;;;5093250;28;20095;-71
2021/06/26 09:33:02;;;;;;;17.65;12.90;;;;;;;;;;5092906;28;20028;-72
2021/06/26 09:35:28;;;;;;;18.83;15.75;;;;;;;;;;5093185;28;20024;-72
2021/06/26 09:37:56;;;;;;;16.63;15.02;;;;;;;;;;5092748;28;20036;-71
2021/06/26 09:40:26;;;;;;;17.13;14.10;;;;;;;;;;5093053;28;20017;-72
2021/06/26 09:42:54;;;;;;;15.48;13.88;;;;;;;;;;5093090;28;20401;-71
2021/06/26 09:45:20;;;;;;;13.73;12.32;;;;;;;;;;5092134;28;20464;-71
2021/06/26 09:47:46;;;;;;;15.40;14.10;;;;;;;;;;5092949;28;20047;-71
2021/06/26 09:50:13;;;;;;;16.00;14.57;;;;;;;;;;5093483;28;20393;-71
2021/06/26 09:52:55;;;;;;;15.63;14.02;;;;;;;;;;5092951;28;20028;-72
2021/06/26 09:55:24;;;;;;;16.23;14.73;;;;;;;;;;5096241;28;20035;-72
2021/06/26 09:57:50;;;;;;;16.02;14.40;;;;;;;;;;5102074;28;20053;-71
2021/06/26 10:00:17;;;;;;;16.48;14.90;;;;;;;;;;5105437;28;20027;-71
2021/06/26 10:02:44;;;;;;;17.08;15.48;;;;;;;;;;5104520;28;20024;-71
2021/06/26 10:05:10;;;;;;;17.13;15.63;;;;;;;;;;5105709;28;20024;-71
2021/06/26 10:07:36;;;;;;;17.42;15.93;;;;;;;;;;5106500;28;20024;-71
2021/06/26 10:10:03;;;;;;;15.88;14.30;;;;;;;;;;5103799;28;20070;-71
2021/06/26 10:12:29;;;;;;;17.92;13.63;;;;;;;;;;5105914;28;20066;-73
2021/06/26 10:14:55;;;;;;;16.23;14.65;;;;;;;;;;5106332;28;20024;-74
2021/06/26 10:17:22;;;;;;;16.63;15.02;;;;;;;;;;5104469;28;20381;-74
2021/06/26 10:19:48;;;;;;;15.23;13.80;;;;;;;;;;5105845;28;20103;-73
2021/06/26 10:22:14;;;;;;;17.30;15.60;;;;;;;;;;5105741;28;20045;-71
2021/06/26 10:24:41;;;;;;;16.15;14.65;;;;;;;;;;5104316;28;20112;-73
2021/06/26 10:27:15;;;;;;;16.75;15.25;;;;;;;;;;5105531;28;20015;-72
2021/06/26 10:29:41;;;;;;;18.23;16.63;;;;;;;;;;5106304;28;20475;-73
2021/06/26 10:32:09;;;;;;;16.85;15.35;;;;;;;;;;5104909;28;20016;-73
2021/06/26 10:34:43;;;;;;;14.63;13.30;;;;;;;;;;5104163;28;20046;-72
2021/06/26 10:37:26;;;;;;;17.13;13.73;;;;;;;;;;5104512;28;20503;-72
2021/06/26 10:40:08;;;;;;;14.52;13.32;;;;;;;;;;5103553;28;20020;-72
2021/06/26 10:42:35;;;;;;;17.30;15.38;;;;;;;;;;5103500;28;20559;-73
2021/06/26 10:45:01;;;;;;;15.27;13.88;;;;;;;;;;5114321;28;20067;-73
2021/06/26 10:47:35;;;;;;;14.13;12.88;;;;;;;;;;5117347;28;20028;-72
2021/06/26 10:50:21;;;;;;;16.73;15.27;;;;;;;;;;5114350;28;20481;-73
2021/06/26 10:52:51;;;;;;;20.98;16.77;;;;;;;;;;5099252;28;20108;-72
2021/06/26 10:55:33;;;;;;;16.65;15.15;;;;;;;;;;5115513;28;20051;-73
2021/06/26 10:58:00;;;;;;;14.55;13.18;;;;;;;;;;5116402;28;20031;-73
2021/06/26 11:00:41;;;;;;;14.35;13.07;;;;;;;;;;5116652;28;20032;-73
2021/06/26 11:03:19;;;;;;;20.58;15.95;;;;;;;;;;5116018;28;20024;-73
2021/06/26 11:05:45;;;;;;;20.45;16.45;;;;;;;;;;5116346;28;20073;-72
2021/06/26 11:08:19;;;;;;;13.20;12.05;;;;;;;;;;5116192;28;20540;-73
2021/06/26 11:11:01;;;;;;;20.50;13.70;;;;;;;;;;5116149;28;20039;-71
2021/06/26 11:13:28;;;;;;;13.93;12.70;;;;;;;;;;5116349;28;20031;-72
2021/06/26 11:15:57;;;;;;;13.93;12.60;;;;;;;;;;5116007;28;20465;-72
2021/06/26 11:18:23;;;;;;;14.57;13.27;;;;;;;;;;5115861;28;20102;-72
2021/06/26 11:20:49;;;;;;;16.85;15.32;;;;;;;;;;5116198;28;20030;-72
2021/06/26 11:23:16;;;;;;;16.02;14.63;;;;;;;;;;5115766;28;20035;-72
2021/06/26 11:25:42;;;;;;;15.50;13.43;;;;;;;;;;5114477;28;20027;-74
2021/06/26 11:28:10;;;;;;;23.35;11.73;;;;;;;;;;5114927;28;20023;-71
2021/06/26 11:30:36;;;;;;;11.90;10.82;;;;;;;;;;5115638;28;20110;-71
2021/06/26 11:33:02;;;;;;;13.20;11.90;;;;;;;;;;5114711;28;20122;-72
2021/06/26 11:35:35;;;;;;;14.52;13.23;;;;;;;;;;5115647;28;20024;-74
2021/06/26 11:38:01;;;;;;;15.57;14.10;;;;;;;;;;5115891;28;20473;-73
2021/06/26 11:40:27;;;;;;;14.15;12.95;;;;;;;;;;5114464;28;20034;-73
2021/06/26 11:42:55;;;;;;;22.58;13.38;;;;;;;;;;5111252;28;20028;-72
2021/06/26 11:45:23;;;;;;;24.77;11.15;;;;;;;;;;5104921;28;20024;-73
2021/06/26 11:47:49;;;;;;;13.30;12.27;;;;;;;;;;5104296;28;20370;-72
2021/06/26 11:50:15;;;;;;;12.00;10.80;;;;;;;;;;5105771;28;20405;-73
2021/06/26 11:52:41;;;;;;;10.25;9.45;;;;;;;;;;5115396;28;20115;-72
2021/06/26 11:55:08;;;;;;;17.33;12.25;;;;;;;;;;5115445;28;20354;-73
2021/06/26 11:57:34;;;;;;;11.80;10.65;;;;;;;;;;5115211;28;20027;-73
2021/06/26 12:00:00;;;;;;;13.52;10.65;;;;;;;;;;5112603;28;20023;-73
2021/06/26 12:02:34;;;;;;;12.05;11.07;;;;;;;;;;5114110;28;20026;-71
2021/06/26 12:05:01;;;;;;;9.75;8.95;;;;;;;;;;5114517;28;20377;-72
2021/06/26 12:07:34;;;;;;;12.00;10.77;;;;;;;;;;5097988;28;20028;-71
2021/06/26 12:10:01;;;;;;;10.18;9.27;;;;;;;;;;5094506;28;20028;-72
2021/06/26 12:12:27;;;;;;;14.98;10.73;;;;;;;;;;5094262;28;20027;-72
2021/06/26 12:14:53;;;;;;;11.35;10.25;;;;;;;;;;5093713;28;20030;-73
2021/06/26 12:17:22;;;;;;;10.90;10.02;;;;;;;;;;5094136;28;20027;-71
2021/06/26 12:19:48;;;;;;;12.10;10.32;;;;;;;;;;5094321;28;20023;-71
2021/06/26 12:22:19;;;;;;;18.08;9.00;;;;;;;;;;5093900;28;20377;-71
2021/06/26 12:24:46;;;;;;;10.32;9.43;;;;;;;;;;5093969;28;20124;-71
2021/06/26 12:27:20;;;;;;;9.95;9.15;;;;;;;;;;5094283;28;20024;-71
2021/06/26 12:29:54;;;;;;;17.70;12.57;;;;;;;;;;5093933;28;20469;-71
2021/06/26 12:32:22;;;;;;;11.25;10.00;;;;;;;;;;5094412;28;20039;-72
2021/06/26 12:34:48;;;;;;;9.10;8.38;;;;;;;;;;5093930;28;20050;-72
2021/06/26 12:37:14;;;;;;;10.70;9.57;;;;;;;;;;5093941;28;20477;-72
2021/06/26 12:39:41;;;;;;;10.35;9.45;;;;;;;;;;5093944;28;20056;-71
2021/06/26 12:42:09;;;;;;;9.57;8.77;;;;;;;;;;5093895;28;20067;-71
2021/06/26 12:44:36;;;;;;;12.98;8.63;;;;;;;;;;5093838;28;20550;-71
2021/06/26 12:47:02;;;;;;;9.77;8.82;;;;;;;;;;5093849;28;20028;-71
2021/06/26 12:49:37;;;;;;;9.80;8.90;;;;;;;;;;5093712;28;20016;-71
2021/06/26 12:52:15;;;;;;;10.18;8.23;;;;;;;;;;5093815;28;20024;-71
2021/06/26 12:54:49;;;;;;;7.68;7.07;;;;;;;;;;5098914;28;20169;-72
2021/06/26 12:57:15;;;;;;;8.38;7.65;;;;;;;;;;5101624;28;20343;-72
2021/06/26 12:59:41;;;;;;;7.38;6.65;;;;;;;;;;5102282;28;20019;-72
2021/06/26 13:02:09;;;;;;;8.50;7.75;;;;;;;;;;5103573;28;20028;-72
2021/06/26 13:04:44;;;;;;;8.27;7.47;;;;;;;;;;5101144;28;20415;-72
2021/06/26 13:07:18;;;;;;;7.65;7.05;;;;;;;;;;5098182;28;20020;-71
2021/06/26 13:09:46;;;;;;;8.48;7.70;;;;;;;;;;5093984;28;20368;-72
2021/06/26 13:12:12;;;;;;;10.05;8.98;;;;;;;;;;5093457;28;20056;-71
2021/06/26 13:14:39;;;;;;;6.97;6.38;;;;;;;;;;5093194;28;20067;-72
2021/06/26 13:17:05;;;;;;;7.93;7.32;;;;;;;;;;5092952;28;20424;-74
2021/06/26 13:19:31;;;;;;;7.90;7.22;;;;;;;;;;5093577;28;20046;-73
2021/06/26 13:21:57;;;;;;;7.93;7.28;;;;;;;;;;5098775;28;20020;-72
2021/06/26 13:24:23;;;;;;;8.68;7.88;;;;;;;;;;5102554;28;20065;-72
2021/06/26 13:26:50;;;;;;;9.63;7.93;;;;;;;;;;5101171;28;20031;-72
2021/06/26 13:29:16;;;;;;;7.68;7.00;;;;;;;;;;5103015;28;20066;-73
2021/06/26 13:31:42;;;;;;;8.30;7.55;;;;;;;;;;5097955;28;20065;-72
2021/06/26 13:34:08;;;;;;;8.73;7.90;;;;;;;;;;5090708;28;20073;-72
2021/06/26 13:36:34;;;;;;;8.77;7.85;;;;;;;;;;5091891;28;20029;-71
2021/06/26 13:39:00;;;;;;;10.18;7.93;;;;;;;;;;5092782;28;20023;-71
2021/06/26 13:41:26;;;;;;;7.50;6.90;;;;;;;;;;5093421;28;20121;-71
2021/06/26 13:43:52;;;;;;;6.78;6.28;;;;;;;;;;5092966;28;20031;-72
2021/06/26 13:46:18;;;;;;;22.65;6.82;;;;;;;;;;5092500;28;20038;-71
2021/06/26 13:48:44;;;;;;;8.95;7.30;;;;;;;;;;5093019;28;20389;-71
2021/06/26 13:51:10;;;;;;;19.15;6.40;;;;;;;;;;5092703;28;20048;-71
2021/06/26 13:53:36;;;;;;;8.32;7.38;;;;;;;;;;5093864;28;20036;-72
2021/06/26 13:56:02;;;;;;;6.25;5.75;;;;;;;;;;5092274;28;20024;-71
2021/06/26 13:58:28;;;;;;;7.82;7.05;;;;;;;;;;5093118;28;20380;-71
2021/06/26 14:00:54;;;;;;;6.97;6.38;;;;;;;;;;5093075;28;20055;-71
2021/06/26 14:03:20;;;;;;;8.40;5.80;;;;;;;;;;5092933;28;20025;-71
2021/06/26 14:05:47;;;;;;;6.95;6.32;;;;;;;;;;5092746;28;20024;-71
2021/06/26 14:08:13;;;;;;;8.45;6.63;;;;;;;;;;5093357;28;20081;-71
2021/06/26 14:10:39;;;;;;;8.48;7.25;;;;;;;;;;5093012;28;20107;-71
2021/06/26 14:13:05;;;;;;;9.63;7.22;;;;;;;;;;5092483;28;20035;-72
2021/06/26 14:15:31;;;;;;;22.00;6.13;;;;;;;;;;5092565;28;20526;-72
2021/06/26 14:17:58;;;;;;;21.02;6.60;;;;;;;;;;5092772;28;20028;-72
2021/06/26 14:20:24;;;;;;;13.82;7.03;;;;;;;;;;5092942;28;20065;-72